Air Navigation Services of Czech Republic
Airport: LKMT Updated:  22.06.2017 23:48:09  UTC
 SPECI LKMT 22.06. 23:46 ...
SPECI LKMT 222346Z 29013KT 260V340 6000 TSRA SCT030CB 22/13 Q1012 RMK REG QNH 1007=
 SPECI LKMT 22.06. 23:36 ...
SPECI LKMT 222336Z 28017G31KT 9999 TS FEW030CB 22/13 Q1012 RMK REG QNH 1007=
 SPECI LKMT 22.06. 23:33 ...
SPECI LKMT 222333Z 28013G31KT 9999 VCTS FEW030CB 20/14 Q1012 RMK REG QNH 1007=
 METAR LKMT 22.06. 23:30 ...
METAR LKMT 222330Z 26005KT CAVOK 20/14 Q1010 TEMPO 27015G30KT 5000 TSRA SCT030CB RMK REG QNH 1007=
 TAF LKMT 22.06. 23:00 ...
TAF LKMT 222300Z 2300/2406 22008KT 9999 SCT040      TEMPO 2300/2314 7000 SHRA BKN030      PROB30 TEMPO 2300/2311 24016G28KT 3000 TSRA BKN030CB      TEMPO 2320/2402 20004KT      BECMG 2322/2400 CAVOK=
 WARNING LKMT 22.06. 23:31 ...
LKMT AD WRNG 1 VALID 222335/230035 TS FCST NC=